Terminal Aerodrome Forecast
Issued by NWS

Home | Current Version | Previous Version | Graphics & Text | Print | Product List | Glossary On
Versions: 1 2 3 4 5 6 7 8 9 10 11 12 13 14 15 16 17 18 19 20 21 22 23 24 25 26 27 28 29 30 31 32 33 34
000
FTUS43 KLOT 251400 AAA
TAFDPA
TAF AMD
KDPA 251421Z 2514/2612 03006KT P6SM BKN080
     FM260000 03008KT 3SM -SN SCT020 OVC040
     FM260100 03009KT 2SM -SN BKN020 OVC035
      TEMPO 2602/2606 1 1/2SM -SN OVC015
     FM260800 03013KT 4SM -SN BKN014 OVC020=

USA.gov is the U.S. government's official web portal to all federal, state and local government web resources and services.